Time;durP1;ratioP1;P1;durP2;ratioP2;P2;SDS_P1;SDS_P2;PMS_P1;PMS_P2;Temp;Humidity;BMP_temperature;BMP_pressure;BME280_temperature;BME280_humidity;BME280_pressure;Samples;Min_cycle;Max_cycle;Signal;HPM_P1;HPM_P2
2021/12/26 00:01:31;;;;;;;22.58;16.48;;;-3.40;98.30;;;;;;4146862;28;20254;-76
2021/12/26 00:03:37;;;;;;;18.10;15.65;;;-3.40;98.30;;;;;;4158954;28;20251;-76
2021/12/26 00:05:40;;;;;;;17.92;14.98;;;-3.40;98.30;;;;;;4144407;28;20602;-76
2021/12/26 00:07:43;;;;;;;20.80;14.90;;;-3.30;98.30;;;;;;4160587;28;20203;-76
2021/12/26 00:09:46;;;;;;;17.33;15.48;;;-3.40;98.30;;;;;;4155567;28;20210;-76
2021/12/26 00:11:50;;;;;;;20.50;15.98;;;-3.40;98.30;;;;;;4154909;28;20582;-76
2021/12/26 00:13:55;;;;;;;22.75;17.45;;;-3.40;98.30;;;;;;4147292;28;20208;-76
2021/12/26 00:15:58;;;;;;;23.00;17.25;;;-3.50;98.30;;;;;;4153867;28;20203;-76
2021/12/26 00:18:01;;;;;;;19.92;16.70;;;-3.40;98.30;;;;;;4154438;28;20239;-76
2021/12/26 00:20:06;;;;;;;20.45;17.23;;;-3.50;98.30;;;;;;4149592;28;20211;-76
2021/12/26 00:22:09;;;;;;;25.85;19.45;;;-3.50;98.30;;;;;;4151120;28;20239;-76
2021/12/26 00:24:12;;;;;;;23.25;18.00;;;-3.60;98.30;;;;;;4149918;28;20270;-76
2021/12/26 00:26:16;;;;;;;22.13;19.38;;;-3.60;98.30;;;;;;4149295;28;20230;-76
2021/12/26 00:28:19;;;;;;;27.52;21.80;;;-3.70;98.30;;;;;;4146241;28;20212;-76
2021/12/26 00:30:23;;;;;;;29.52;21.77;;;-3.80;98.30;;;;;;4162010;28;20218;-76
2021/12/26 00:32:26;;;;;;;26.10;20.30;;;-3.90;98.30;;;;;;4150102;28;20642;-76
2021/12/26 00:34:29;;;;;;;26.17;21.98;;;-4.00;98.30;;;;;;4154318;28;20215;-76
2021/12/26 00:36:32;;;;;;;27.42;23.33;;;-4.00;98.30;;;;;;4150938;28;20199;-75
2021/12/26 00:38:35;;;;;;;26.73;21.80;;;-4.00;98.30;;;;;;4153893;28;20211;-76
2021/12/26 00:40:38;;;;;;;26.55;22.13;;;-4.00;98.30;;;;;;4153757;28;20211;-76
2021/12/26 00:42:41;;;;;;;26.00;22.40;;;-4.10;98.30;;;;;;4153097;28;20297;-76
2021/12/26 00:44:44;;;;;;;25.10;22.40;;;-4.00;98.30;;;;;;4150658;28;20212;-76
2021/12/26 00:46:50;;;;;;;25.35;21.25;;;-4.10;98.30;;;;;;4147095;28;20663;-75
2021/12/26 00:48:53;;;;;;;30.90;22.80;;;-4.20;98.30;;;;;;4155916;28;20218;-75
2021/12/26 00:50:56;;;;;;;27.55;22.75;;;-4.20;98.30;;;;;;4155514;28;20219;-75
2021/12/26 00:52:59;;;;;;;25.80;21.35;;;-4.20;98.30;;;;;;4149736;28;20277;-76
2021/12/26 00:55:02;;;;;;;23.58;20.30;;;-4.20;98.30;;;;;;4149678;28;20200;-75
2021/12/26 00:57:06;;;;;;;24.25;19.67;;;-4.20;98.30;;;;;;4151790;28;20654;-76
2021/12/26 00:59:09;;;;;;;25.55;19.92;;;-4.20;98.30;;;;;;4158571;28;20222;-75
2021/12/26 01:01:12;;;;;;;25.70;19.85;;;-4.10;98.30;;;;;;4159273;28;20215;-75
2021/12/26 01:03:19;;;;;;;22.90;19.23;;;-4.20;98.30;;;;;;4160700;28;20261;-76
2021/12/26 01:05:24;;;;;;;27.33;20.55;;;-4.30;98.30;;;;;;4155459;28;20230;-76
2021/12/26 01:07:37;;;;;;;25.50;21.70;;;-4.20;98.30;;;;;;4160331;28;20203;-76
2021/12/26 01:09:43;;;;;;;25.55;18.58;;;-4.20;98.30;;;;;;4150436;28;20203;-75
2021/12/26 01:11:50;;;;;;;22.92;18.67;;;-4.30;98.30;;;;;;4161186;28;20241;-75
2021/12/26 01:13:53;;;;;;;24.17;21.63;;;-4.30;98.30;;;;;;4153325;28;20204;-76
2021/12/26 01:15:59;;;;;;;26.85;20.85;;;-4.30;98.30;;;;;;4147244;28;20211;-75
2021/12/26 01:18:02;;;;;;;22.90;20.02;;;-4.30;98.30;;;;;;4154395;28;20226;-76
2021/12/26 01:20:13;;;;;;;21.55;18.17;;;-4.30;98.30;;;;;;4162449;28;20662;-76
2021/12/26 01:22:17;;;;;;;23.85;19.23;;;-4.20;98.30;;;;;;4151289;28;20278;-76
2021/12/26 01:24:19;;;;;;;22.17;18.30;;;-4.20;98.30;;;;;;4158656;28;20657;-76
2021/12/26 01:26:23;;;;;;;23.63;19.27;;;-4.20;98.30;;;;;;4149610;28;20265;-76
2021/12/26 01:28:28;;;;;;;24.30;20.10;;;-4.10;98.30;;;;;;4154489;28;20226;-76
2021/12/26 01:30:32;;;;;;;22.30;19.63;;;-4.00;98.30;;;;;;4156836;28;20251;-76
2021/12/26 01:32:35;;;;;;;24.42;20.30;;;-4.00;98.30;;;;;;4147311;28;20228;-76
2021/12/26 01:34:38;;;;;;;24.92;19.83;;;-4.00;98.30;;;;;;4152044;28;20715;-76
2021/12/26 01:36:42;;;;;;;22.27;19.63;;;-4.00;98.30;;;;;;4154278;28;20238;-75
2021/12/26 01:38:45;;;;;;;22.17;17.77;;;-4.00;98.30;;;;;;4144944;28;20207;-75
2021/12/26 01:40:51;;;;;;;20.25;18.05;;;-4.00;98.30;;;;;;4143000;28;20215;-75
2021/12/26 01:42:54;;;;;;;19.98;17.38;;;-4.00;98.30;;;;;;4155029;28;20636;-75
2021/12/26 01:44:57;;;;;;;21.40;18.65;;;-4.00;98.30;;;;;;4148988;28;20203;-75
2021/12/26 01:46:59;;;;;;;19.05;16.48;;;-4.00;98.30;;;;;;4148840;28;20203;-76
2021/12/26 01:49:05;;;;;;;21.15;18.17;;;-4.10;98.30;;;;;;4152210;28;20207;-76
2021/12/26 01:51:08;;;;;;;21.23;18.30;;;-4.10;98.30;;;;;;4144572;28;20215;-75
2021/12/26 01:53:13;;;;;;;23.83;19.10;;;-4.10;98.30;;;;;;4152797;28;20204;-75
2021/12/26 01:55:24;;;;;;;20.48;18.17;;;-4.20;98.30;;;;;;4147979;28;20218;-75
2021/12/26 01:57:27;;;;;;;22.33;18.95;;;-4.30;98.30;;;;;;4153923;28;20218;-75
2021/12/26 01:59:31;;;;;;;25.15;18.10;;;-4.50;98.30;;;;;;4150613;28;20651;-75
2021/12/26 02:01:33;;;;;;;22.50;19.10;;;-4.50;98.30;;;;;;4140778;28;20243;-76
2021/12/26 02:03:38;;;;;;;22.45;18.33;;;-4.50;98.30;;;;;;4153385;28;20278;-75
2021/12/26 02:05:41;;;;;;;22.60;18.90;;;-4.60;98.30;;;;;;4150858;28;20611;-75
2021/12/26 02:07:44;;;;;;;22.35;18.50;;;-4.60;98.30;;;;;;4144414;28;20614;-75
2021/12/26 02:09:48;;;;;;;20.00;17.85;;;-4.70;98.30;;;;;;4155162;28;20733;-76
2021/12/26 02:11:51;;;;;;;20.00;16.75;;;-4.70;98.30;;;;;;4152007;28;20235;-75
2021/12/26 02:13:54;;;;;;;18.58;16.58;;;-4.70;98.30;;;;;;4155924;28;20211;-75
2021/12/26 02:15:58;;;;;;;21.83;17.92;;;-4.70;98.30;;;;;;4149349;28;20768;-75
2021/12/26 02:18:01;;;;;;;22.05;16.85;;;-4.70;98.30;;;;;;4145156;28;20212;-76
2021/12/26 02:20:30;;;;;;;20.10;16.52;;;-4.60;98.30;;;;;;4148257;28;20218;-75
2021/12/26 02:22:37;;;;;;;20.40;16.42;;;-4.60;98.30;;;;;;4151093;28;20305;-75
2021/12/26 02:25:09;;;;;;;20.45;15.70;;;-4.60;98.30;;;;;;4146043;28;20230;-75
2021/12/26 02:29:33;;;;;;;19.85;16.50;;;-4.60;98.30;;;;;;4156617;28;20723;-76
2021/12/26 02:31:36;;;;;;;21.40;17.17;;;-4.60;98.30;;;;;;4158089;28;20699;-75
2021/12/26 02:33:39;;;;;;;21.63;17.50;;;-4.60;98.30;;;;;;4147222;28;23424;-75
2021/12/26 02:35:43;;;;;;;18.08;15.73;;;-4.80;98.30;;;;;;4157020;28;20218;-75
2021/12/26 02:37:47;;;;;;;23.40;18.00;;;-4.70;98.30;;;;;;4151698;28;20215;-75
2021/12/26 02:39:50;;;;;;;22.42;17.27;;;-4.80;98.30;;;;;;4149106;28;20269;-75
2021/12/26 02:41:52;;;;;;;22.35;17.08;;;-4.70;98.30;;;;;;4158681;28;20239;-75
2021/12/26 02:43:56;;;;;;;20.92;15.80;;;-4.80;98.30;;;;;;4151844;28;20227;-75
2021/12/26 02:46:04;;;;;;;17.80;14.25;;;-4.90;98.30;;;;;;4153897;28;20211;-75
2021/12/26 02:48:09;;;;;;;18.38;15.75;;;-4.90;98.30;;;;;;4157420;28;20919;-75
2021/12/26 02:50:14;;;;;;;17.08;15.27;;;-4.70;98.30;;;;;;4150077;28;20216;-75
2021/12/26 02:52:19;;;;;;;21.73;15.25;;;-4.80;98.30;;;;;;4158678;28;20236;-75
2021/12/26 02:54:24;;;;;;;21.48;14.05;;;-4.80;98.30;;;;;;4153165;28;20286;-75
2021/12/26 02:56:28;;;;;;;18.50;15.00;;;-4.70;98.30;;;;;;4161387;28;20256;-75
2021/12/26 02:58:31;;;;;;;17.27;14.55;;;-4.80;98.30;;;;;;4159841;28;20595;-75
2021/12/26 03:00:37;;;;;;;17.88;15.20;;;-4.80;98.30;;;;;;4155018;28;20370;-75
2021/12/26 03:02:41;;;;;;;18.73;14.63;;;-4.70;98.30;;;;;;4160336;28;20698;-75
2021/12/26 03:04:44;;;;;;;16.52;14.05;;;-4.70;98.30;;;;;;4160455;28;20306;-75
2021/12/26 03:06:56;;;;;;;17.00;15.02;;;-4.80;98.30;;;;;;4161436;28;20215;-75
2021/12/26 03:09:00;;;;;;;15.35;13.80;;;-4.80;98.30;;;;;;4159257;28;20214;-75
2021/12/26 03:11:03;;;;;;;17.02;15.15;;;-4.80;98.30;;;;;;4149417;28;20216;-75
2021/12/26 03:13:09;;;;;;;19.92;15.57;;;-4.90;98.30;;;;;;4157984;28;20260;-75
2021/12/26 03:15:12;;;;;;;17.33;14.13;;;-4.90;98.30;;;;;;4158249;28;20207;-75
2021/12/26 03:17:14;;;;;;;18.45;14.02;;;-5.00;98.30;;;;;;4155659;28;20214;-75
2021/12/26 03:19:17;;;;;;;15.73;14.10;;;-5.00;98.30;;;;;;4160760;28;20216;-75
2021/12/26 03:21:20;;;;;;;18.00;13.80;;;-5.00;98.30;;;;;;4156247;28;20207;-75
2021/12/26 03:23:26;;;;;;;17.27;13.98;;;-5.00;98.30;;;;;;4152182;28;20215;-75
2021/12/26 03:25:33;;;;;;;17.50;13.95;;;-4.90;98.30;;;;;;4160079;28;20234;-75
2021/12/26 03:27:35;;;;;;;15.77;13.02;;;-4.90;98.30;;;;;;4147600;28;20207;-75
2021/12/26 03:29:39;;;;;;;16.25;14.50;;;-5.00;98.30;;;;;;4163244;28;20203;-76
2021/12/26 03:31:42;;;;;;;16.02;14.32;;;-4.90;98.30;;;;;;4157263;28;20300;-75
2021/12/26 03:33:45;;;;;;;14.13;12.63;;;-5.00;98.30;;;;;;4151107;28;20908;-76
2021/12/26 03:35:48;;;;;;;15.63;12.95;;;-4.90;98.30;;;;;;4154226;28;20210;-76
2021/12/26 03:37:51;;;;;;;15.25;13.65;;;-5.00;98.30;;;;;;4148328;28;20203;-75
2021/12/26 03:39:54;;;;;;;14.40;13.00;;;-4.90;98.30;;;;;;4152769;28;20262;-76
2021/12/26 03:41:58;;;;;;;16.17;13.52;;;-4.90;98.30;;;;;;4156544;28;20231;-75
2021/12/26 03:44:01;;;;;;;14.40;12.90;;;-4.90;98.30;;;;;;4155431;28;20219;-76
2021/12/26 03:46:04;;;;;;;15.93;13.90;;;-5.00;98.30;;;;;;4150075;28;20245;-75
2021/12/26 03:48:07;;;;;;;17.23;14.25;;;-5.00;98.30;;;;;;4146532;28;20216;-75
2021/12/26 03:50:10;;;;;;;16.02;13.10;;;-5.10;98.30;;;;;;4137864;28;20845;-75
2021/12/26 03:52:13;;;;;;;17.08;14.35;;;-5.10;98.30;;;;;;4143234;28;20236;-76
2021/12/26 03:54:16;;;;;;;16.10;13.38;;;-5.10;98.30;;;;;;4158418;28;20199;-75
2021/12/26 03:56:19;;;;;;;18.35;14.40;;;-5.10;98.30;;;;;;4150952;28;20231;-76
2021/12/26 03:58:23;;;;;;;14.77;13.25;;;-5.20;98.30;;;;;;4162651;28;20214;-75
2021/12/26 04:00:28;;;;;;;17.88;15.13;;;-5.20;98.30;;;;;;4156676;28;20745;-75
2021/12/26 04:02:31;;;;;;;20.63;15.82;;;-5.30;98.30;;;;;;4156419;28;20229;-75
2021/12/26 04:04:34;;;;;;;17.88;13.70;;;-5.30;98.30;;;;;;4151852;28;20770;-75
2021/12/26 04:06:36;;;;;;;16.15;14.45;;;-5.30;98.30;;;;;;4141865;28;20223;-75
2021/12/26 04:08:39;;;;;;;16.48;14.30;;;-5.30;98.30;;;;;;4146954;28;20755;-75
2021/12/26 04:10:42;;;;;;;17.95;13.38;;;-5.30;98.30;;;;;;4155443;28;20204;-75
2021/12/26 04:12:48;;;;;;;16.08;13.68;;;-5.30;98.30;;;;;;4154521;28;20239;-75
2021/12/26 04:14:52;;;;;;;15.30;12.82;;;-5.40;98.30;;;;;;4149045;28;20208;-76
2021/12/26 04:16:55;;;;;;;19.45;13.88;;;-5.30;98.30;;;;;;4154651;28;20214;-76
2021/12/26 04:18:57;;;;;;;17.55;13.50;;;-5.30;98.30;;;;;;4141502;28;20216;-76
2021/12/26 04:21:01;;;;;;;16.33;13.30;;;-5.30;98.30;;;;;;4149443;28;20208;-76
2021/12/26 04:23:04;;;;;;;16.42;13.73;;;-5.30;98.30;;;;;;4148541;28;20731;-76
2021/12/26 04:25:08;;;;;;;14.70;13.10;;;-5.40;98.30;;;;;;4145316;28;20224;-76
2021/12/26 04:27:10;;;;;;;15.15;13.43;;;-5.50;98.30;;;;;;4147257;28;20220;-75
2021/12/26 04:29:13;;;;;;;18.30;13.23;;;-5.40;98.30;;;;;;4149059;28;20579;-76
2021/12/26 04:31:18;;;;;;;16.33;12.75;;;-5.50;98.30;;;;;;4149975;28;20212;-75
2021/12/26 04:33:20;;;;;;;15.52;12.88;;;-5.50;98.30;;;;;;4149882;28;20207;-75
2021/12/26 04:35:24;;;;;;;15.98;13.18;;;-5.50;98.30;;;;;;4146358;28;20281;-75
2021/12/26 04:37:27;;;;;;;17.90;13.32;;;-5.50;98.30;;;;;;4141522;28;20266;-76
2021/12/26 04:39:30;;;;;;;16.00;13.30;;;-5.50;98.30;;;;;;4145917;28;20207;-75
2021/12/26 04:41:33;;;;;;;16.08;12.32;;;-5.50;98.30;;;;;;4148996;28;20632;-75
2021/12/26 04:43:36;;;;;;;15.48;13.77;;;-5.60;98.30;;;;;;4158587;28;20694;-75
2021/12/26 04:45:39;;;;;;;14.25;12.75;;;-5.50;98.30;;;;;;4148417;28;20244;-75
2021/12/26 04:47:45;;;;;;;12.80;11.50;;;-5.50;98.30;;;;;;4142216;28;20207;-75
2021/12/26 04:49:48;;;;;;;17.83;12.60;;;-5.50;98.30;;;;;;4151070;28;20226;-75
2021/12/26 04:51:51;;;;;;;14.73;12.60;;;-5.50;98.30;;;;;;4147938;28;20246;-75
2021/12/26 04:53:54;;;;;;;14.23;11.77;;;-5.50;98.30;;;;;;4160199;28;20289;-75
2021/12/26 04:55:59;;;;;;;15.40;11.27;;;-5.50;98.30;;;;;;4156662;28;20195;-75
2021/12/26 04:58:03;;;;;;;17.25;12.30;;;-5.60;98.30;;;;;;4155431;28;20219;-75
2021/12/26 05:00:06;;;;;;;14.75;12.73;;;-5.60;98.30;;;;;;4154318;28;20219;-76
2021/12/26 05:02:09;;;;;;;13.73;12.38;;;-5.70;98.30;;;;;;4142189;28;20237;-76
2021/12/26 05:04:13;;;;;;;14.77;13.07;;;-5.60;98.30;;;;;;4144398;28;20217;-75
2021/12/26 05:06:17;;;;;;;14.63;13.02;;;-5.60;98.30;;;;;;4156814;28;20605;-75
2021/12/26 05:08:20;;;;;;;14.88;12.73;;;-5.70;98.30;;;;;;4150238;28;20237;-76
2021/12/26 05:10:27;;;;;;;14.40;12.52;;;-5.70;98.30;;;;;;4149982;28;20207;-75
2021/12/26 05:12:30;;;;;;;12.70;11.38;;;-5.80;98.30;;;;;;4147301;28;20314;-75
2021/12/26 05:14:33;;;;;;;16.20;11.43;;;-5.90;98.30;;;;;;4141764;28;20210;-75
2021/12/26 05:16:35;;;;;;;13.30;10.48;;;-5.90;98.30;;;;;;4153394;28;20210;-76
2021/12/26 05:18:39;;;;;;;14.27;11.63;;;-5.80;98.30;;;;;;4146427;28;20214;-76
2021/12/26 05:20:44;;;;;;;14.05;10.90;;;-5.90;98.30;;;;;;4159803;28;20213;-76
2021/12/26 05:22:47;;;;;;;18.00;11.15;;;-5.90;98.30;;;;;;4146648;28;20293;-75
2021/12/26 05:24:50;;;;;;;12.98;9.90;;;-5.90;98.30;;;;;;4147341;28;20207;-76
2021/12/26 05:26:53;;;;;;;14.15;10.57;;;-5.90;98.30;;;;;;4150416;28;20238;-76
2021/12/26 05:28:55;;;;;;;14.00;11.18;;;-5.80;98.30;;;;;;4157103;28;20214;-76
2021/12/26 05:30:58;;;;;;;13.90;9.43;;;-5.80;98.30;;;;;;4142515;28;20320;-75
2021/12/26 05:33:03;;;;;;;11.50;9.43;;;-5.90;98.30;;;;;;4153863;28;20274;-76
2021/12/26 05:35:06;;;;;;;11.30;9.73;;;-5.80;98.30;;;;;;4158062;28;20207;-75
2021/12/26 05:37:11;;;;;;;12.00;8.85;;;-5.90;98.30;;;;;;4145166;28;20737;-75
2021/12/26 05:39:14;;;;;;;12.45;8.90;;;-5.90;98.30;;;;;;4151921;28;20218;-76
2021/12/26 05:41:16;;;;;;;10.27;8.55;;;-5.90;98.30;;;;;;4143203;28;20204;-76
2021/12/26 05:43:19;;;;;;;12.70;8.68;;;-5.80;98.30;;;;;;4150858;28;20218;-76
2021/12/26 05:45:22;;;;;;;10.48;8.32;;;-5.90;98.30;;;;;;4151532;28;20620;-75
2021/12/26 05:47:26;;;;;;;9.68;8.05;;;-5.90;98.30;;;;;;4142982;28;20302;-75
2021/12/26 05:49:29;;;;;;;12.60;8.73;;;-5.90;98.30;;;;;;4154311;28;20266;-75
2021/12/26 05:51:32;;;;;;;13.10;8.43;;;-5.90;98.30;;;;;;4150507;28;20232;-76
2021/12/26 05:53:36;;;;;;;9.93;7.93;;;-5.80;98.30;;;;;;4159877;28;20230;-75
2021/12/26 05:55:39;;;;;;;10.20;6.80;;;-5.80;98.30;;;;;;4148065;28;20731;-77
2021/12/26 05:57:42;;;;;;;11.95;7.97;;;-5.80;98.30;;;;;;4146241;28;20226;-76
2021/12/26 05:59:51;;;;;;;8.82;7.43;;;-5.80;98.30;;;;;;4152299;28;20252;-75
2021/12/26 06:01:54;;;;;;;8.32;6.72;;;-5.90;98.30;;;;;;4144482;28;20238;-76
2021/12/26 06:03:57;;;;;;;9.80;7.82;;;-5.90;98.30;;;;;;4155102;28;20218;-76
2021/12/26 06:06:00;;;;;;;10.02;7.47;;;-6.00;98.30;;;;;;4154768;28;20242;-75
2021/12/26 06:08:03;;;;;;;9.88;7.35;;;-6.10;98.30;;;;;;4152291;28;20205;-76
2021/12/26 06:10:09;;;;;;;9.98;7.70;;;-6.10;98.30;;;;;;4145164;28;20207;-75
2021/12/26 06:12:12;;;;;;;10.23;7.70;;;-6.00;98.30;;;;;;4150008;28;20728;-75
2021/12/26 06:14:15;;;;;;;9.65;7.00;;;-6.00;98.30;;;;;;4158847;28;20211;-76
2021/12/26 06:16:18;;;;;;;10.18;8.10;;;-6.00;98.30;;;;;;4139612;28;20207;-76
2021/12/26 06:18:21;;;;;;;8.50;6.75;;;-6.00;98.30;;;;;;4149315;28;20269;-76
2021/12/26 06:20:24;;;;;;;7.00;6.07;;;-5.90;98.30;;;;;;4147320;28;20212;-76
2021/12/26 06:22:27;;;;;;;8.85;6.70;;;-5.80;98.30;;;;;;4150097;28;20298;-75
2021/12/26 06:24:30;;;;;;;14.68;10.65;;;-5.80;98.30;;;;;;4150631;28;20216;-75
2021/12/26 06:26:35;;;;;;;9.18;7.40;;;-5.70;98.30;;;;;;4152196;28;20606;-75
2021/12/26 06:28:38;;;;;;;13.55;9.82;;;-5.70;98.30;;;;;;4159387;28;20217;-76
2021/12/26 06:30:41;;;;;;;10.57;8.57;;;-5.70;98.30;;;;;;4150332;28;20597;-75
2021/12/26 06:32:44;;;;;;;10.27;8.13;;;-5.70;98.30;;;;;;4152144;28;20284;-75
2021/12/26 06:34:47;;;;;;;11.18;7.55;;;-5.70;98.30;;;;;;4153514;28;20210;-75
2021/12/26 06:36:53;;;;;;;10.05;7.15;;;-5.70;98.30;;;;;;4150126;28;20215;-75
2021/12/26 06:38:58;;;;;;;10.45;7.50;;;-5.70;98.30;;;;;;4160241;28;20214;-75
2021/12/26 06:41:01;;;;;;;9.15;7.43;;;-5.70;98.30;;;;;;4139086;28;20208;-75
2021/12/26 06:43:07;;;;;;;10.13;7.93;;;-5.80;98.30;;;;;;4154962;28;20235;-75
2021/12/26 06:45:12;;;;;;;10.80;7.45;;;-5.90;98.30;;;;;;4145790;28;20222;-75
2021/12/26 06:47:15;;;;;;;9.75;7.65;;;-6.00;98.30;;;;;;4142693;28;20361;-75
2021/12/26 06:49:18;;;;;;;9.82;7.03;;;-6.00;98.30;;;;;;4153561;28;20212;-75
2021/12/26 06:51:21;;;;;;;9.80;7.28;;;-6.10;98.30;;;;;;4149646;28;20214;-75
2021/12/26 06:53:24;;;;;;;10.70;6.90;;;-6.10;98.30;;;;;;4154378;28;20215;-75
2021/12/26 06:55:27;;;;;;;9.55;7.28;;;-6.10;98.30;;;;;;4157265;28;20680;-76
2021/12/26 06:57:30;;;;;;;8.57;6.72;;;-6.10;98.30;;;;;;4160002;28;20215;-76
2021/12/26 06:59:35;;;;;;;8.65;6.82;;;-6.00;98.30;;;;;;4148887;28;20212;-75
2021/12/26 07:01:38;;;;;;;9.30;6.70;;;-6.00;98.30;;;;;;4153202;28;20239;-77
2021/12/26 07:03:44;;;;;;;7.15;6.45;;;-6.00;98.30;;;;;;4150540;28;20216;-75
2021/12/26 07:05:52;;;;;;;8.00;6.65;;;-6.00;98.30;;;;;;4148929;28;20216;-75
2021/12/26 07:07:55;;;;;;;9.27;6.47;;;-6.00;98.30;;;;;;4155854;28;20370;-75
2021/12/26 07:09:58;;;;;;;8.02;7.03;;;-6.10;98.30;;;;;;4152598;28;20215;-75
2021/12/26 07:12:04;;;;;;;9.70;6.90;;;-6.10;98.30;;;;;;4153113;28;20286;-75
2021/12/26 07:14:07;;;;;;;7.45;6.25;;;-6.10;98.30;;;;;;4144162;28;20226;-75
2021/12/26 07:16:11;;;;;;;7.60;6.28;;;-6.00;98.30;;;;;;4154421;28;20203;-76
2021/12/26 07:18:14;;;;;;;7.80;5.90;;;-6.00;98.30;;;;;;4151337;28;20290;-76
2021/12/26 07:20:17;;;;;;;7.90;7.10;;;-6.10;98.30;;;;;;4151478;28;20615;-75
2021/12/26 07:22:20;;;;;;;8.55;6.38;;;-6.10;98.30;;;;;;4146705;28;20715;-75
2021/12/26 07:24:23;;;;;;;6.93;6.15;;;-6.10;98.30;;;;;;4154581;28;20245;-75
2021/12/26 07:26:26;;;;;;;11.65;7.35;;;-6.20;98.30;;;;;;4161292;28;20625;-75
2021/12/26 07:28:29;;;;;;;7.30;6.10;;;-6.10;98.30;;;;;;4160391;28;20224;-75
2021/12/26 07:30:32;;;;;;;7.50;6.30;;;-6.10;98.30;;;;;;4154702;28;20567;-75
2021/12/26 07:32:36;;;;;;;8.43;6.95;;;-6.00;98.30;;;;;;4151000;28;20231;-75
2021/12/26 07:34:40;;;;;;;9.02;7.10;;;-6.10;98.30;;;;;;4157275;28;20215;-75
2021/12/26 07:36:43;;;;;;;8.65;7.07;;;-6.20;98.30;;;;;;4153186;28;20215;-75
2021/12/26 07:38:46;;;;;;;9.40;7.45;;;-6.30;98.30;;;;;;4150429;28;20208;-75
2021/12/26 07:40:56;;;;;;;11.50;8.55;;;-6.20;98.30;;;;;;4155304;28;20210;-75
2021/12/26 07:42:59;;;;;;;10.73;8.48;;;-6.30;98.30;;;;;;4156073;28;20262;-75
2021/12/26 07:45:02;;;;;;;12.43;9.07;;;-6.30;98.30;;;;;;4159725;28;20566;-75
2021/12/26 07:47:06;;;;;;;9.32;7.45;;;-6.30;98.30;;;;;;4156113;28;20228;-75
2021/12/26 07:49:10;;;;;;;11.45;8.93;;;-6.40;98.30;;;;;;4159564;28;20215;-75
2021/12/26 07:51:13;;;;;;;14.13;9.30;;;-6.30;98.30;;;;;;4152537;28;20196;-77
2021/12/26 07:53:16;;;;;;;12.27;8.50;;;-6.30;98.30;;;;;;4139517;28;20262;-77
2021/12/26 07:55:19;;;;;;;9.27;7.75;;;-6.40;98.30;;;;;;4149957;28;20230;-77
2021/12/26 07:57:22;;;;;;;11.85;8.90;;;-6.50;98.30;;;;;;4147653;28;20619;-77
2021/12/26 07:59:27;;;;;;;10.05;8.55;;;-6.40;98.30;;;;;;4155442;28;20210;-78
2021/12/26 08:01:30;;;;;;;10.65;8.98;;;-6.40;98.30;;;;;;4147956;28;20729;-77
2021/12/26 08:03:34;;;;;;;10.13;8.07;;;-6.30;98.30;;;;;;4151428;28;20650;-77
2021/12/26 08:05:41;;;;;;;9.20;8.15;;;-6.10;98.30;;;;;;4154712;28;20217;-77
2021/12/26 08:07:44;;;;;;;12.38;8.95;;;-6.00;98.30;;;;;;4146787;28;20236;-75
2021/12/26 08:09:47;;;;;;;11.90;8.95;;;-5.90;98.30;;;;;;4150559;28;20670;-75
2021/12/26 08:11:57;;;;;;;10.95;8.32;;;-5.70;98.30;;;;;;4148174;28;20294;-75
2021/12/26 08:14:03;;;;;;;9.40;7.40;;;-5.60;98.30;;;;;;4151174;28;20204;-75
2021/12/26 08:16:08;;;;;;;11.02;7.65;;;-5.50;98.30;;;;;;4151871;28;20588;-75
2021/12/26 08:18:11;;;;;;;7.60;6.68;;;-5.40;98.30;;;;;;4155573;28;20215;-75
2021/12/26 08:20:15;;;;;;;10.45;7.40;;;-5.40;98.30;;;;;;4162378;28;20261;-76
2021/12/26 08:22:19;;;;;;;10.02;7.30;;;-5.30;98.30;;;;;;4154677;28;20238;-75
2021/12/26 08:24:25;;;;;;;9.93;8.27;;;-5.10;98.30;;;;;;4161827;28;20658;-75
2021/12/26 08:26:28;;;;;;;10.15;8.18;;;-5.10;98.30;;;;;;4154647;28;20443;-75
2021/12/26 08:28:31;;;;;;;10.25;8.02;;;-5.10;98.30;;;;;;4155497;28;20831;-75
2021/12/26 08:30:34;;;;;;;9.00;7.45;;;-4.90;98.30;;;;;;4160892;28;20215;-75
2021/12/26 08:32:40;;;;;;;8.40;7.45;;;-4.90;98.30;;;;;;4157189;28;20330;-75
2021/12/26 08:34:43;;;;;;;8.00;7.15;;;-4.80;98.30;;;;;;4154555;28;20233;-77
2021/12/26 08:36:48;;;;;;;10.02;7.90;;;-4.80;98.30;;;;;;4148624;28;20217;-78
2021/12/26 08:38:52;;;;;;;10.23;8.05;;;-4.50;98.30;;;;;;4161033;28;20203;-75
2021/12/26 08:41:00;;;;;;;9.45;8.45;;;-4.50;98.30;;;;;;4154647;28;20265;-75
2021/12/26 08:43:07;;;;;;;13.20;8.38;;;-4.40;98.30;;;;;;4152286;28;20230;-75
2021/12/26 08:45:11;;;;;;;10.00;8.13;;;-4.30;98.30;;;;;;4146626;28;20225;-76
2021/12/26 08:47:15;;;;;;;10.35;9.07;;;-4.20;98.30;;;;;;4157011;28;20254;-76
2021/12/26 08:49:18;;;;;;;9.43;7.40;;;-4.10;98.30;;;;;;4147913;28;20204;-76
2021/12/26 08:51:21;;;;;;;8.95;8.05;;;-4.00;98.30;;;;;;4161736;28;20223;-76
2021/12/26 08:53:25;;;;;;;9.50;8.10;;;-3.90;98.30;;;;;;4157163;28;20207;-76
2021/12/26 08:55:29;;;;;;;9.30;8.27;;;-4.00;98.30;;;;;;4154996;28;20689;-76
2021/12/26 08:57:32;;;;;;;10.07;7.80;;;-3.60;98.30;;;;;;4146961;28;20208;-76
2021/12/26 08:59:36;;;;;;;11.40;7.95;;;-3.60;98.30;;;;;;4156543;28;20238;-76
2021/12/26 09:01:39;;;;;;;8.85;7.82;;;-3.80;98.30;;;;;;4147626;28;20233;-76
2021/12/26 09:03:42;;;;;;;10.05;7.30;;;-3.60;98.30;;;;;;4150047;28;20203;-76
2021/12/26 09:05:45;;;;;;;10.02;7.72;;;-3.40;98.30;;;;;;4146631;28;20242;-76
2021/12/26 09:07:48;;;;;;;9.27;7.47;;;-3.30;98.30;;;;;;4145208;28;20222;-76
2021/12/26 09:09:51;;;;;;;6.78;6.07;;;-3.20;98.30;;;;;;4146403;28;20305;-76
2021/12/26 09:11:56;;;;;;;7.85;7.00;;;-3.10;98.30;;;;;;4150000;28;20219;-77
2021/12/26 09:13:59;;;;;;;7.80;6.95;;;-3.00;98.30;;;;;;4147887;28;20210;-77
2021/12/26 09:16:02;;;;;;;8.32;7.35;;;-3.10;98.30;;;;;;4149169;28;20208;-76
2021/12/26 09:18:07;;;;;;;9.32;7.85;;;-3.00;98.30;;;;;;4146584;28;20210;-76
2021/12/26 09:20:13;;;;;;;9.10;7.65;;;-2.80;98.30;;;;;;4149125;28;20647;-76
2021/12/26 09:22:17;;;;;;;8.63;7.80;;;-2.60;98.30;;;;;;4144730;28;20596;-76
2021/12/26 09:24:20;;;;;;;9.10;8.15;;;-2.40;98.30;;;;;;4157856;28;20217;-77
2021/12/26 09:26:24;;;;;;;8.48;7.72;;;-2.40;98.30;;;;;;4157427;28;20269;-77
2021/12/26 09:28:33;;;;;;;11.35;7.85;;;-2.30;98.30;;;;;;4152728;28;20773;-77
2021/12/26 09:30:36;;;;;;;9.02;7.65;;;-2.40;98.30;;;;;;4151819;28;20318;-77
2021/12/26 09:32:40;;;;;;;8.20;7.38;;;-2.20;98.30;;;;;;4156869;28;20728;-77
2021/12/26 09:34:43;;;;;;;9.20;7.78;;;-2.10;98.30;;;;;;4153375;28;20620;-76
2021/12/26 09:36:46;;;;;;;10.38;8.52;;;-2.00;98.30;;;;;;4149294;28;20208;-76
2021/12/26 09:38:50;;;;;;;9.85;8.10;;;-2.10;98.30;;;;;;4159581;28;20203;-76
2021/12/26 09:40:52;;;;;;;12.43;10.20;;;-2.20;98.30;;;;;;4155649;28;20206;-76
2021/12/26 09:42:57;;;;;;;16.38;11.65;;;-2.10;98.30;;;;;;4155660;28;20786;-76
2021/12/26 09:45:02;;;;;;;16.27;12.77;;;-2.00;98.30;;;;;;4152661;28;20262;-76
2021/12/26 09:47:09;;;;;;;13.85;10.93;;;-1.60;98.30;;;;;;4153069;28;20294;-76
2021/12/26 09:49:13;;;;;;;10.32;9.10;;;-1.50;98.30;;;;;;4158956;28;20227;-76
2021/12/26 09:51:19;;;;;;;9.88;7.78;;;-1.60;98.30;;;;;;4151823;28;20301;-76
2021/12/26 09:53:23;;;;;;;9.30;7.57;;;-1.50;98.30;;;;;;4159284;28;20207;-76
2021/12/26 09:55:30;;;;;;;10.20;7.18;;;-1.40;98.30;;;;;;4158994;28;20217;-76
2021/12/26 09:57:33;;;;;;;7.90;7.10;;;-1.50;98.30;;;;;;4154107;28;20236;-76
2021/12/26 09:59:37;;;;;;;8.70;7.80;;;-1.40;98.30;;;;;;4145615;28;20211;-76
2021/12/26 10:01:46;;;;;;;10.95;8.45;;;-1.10;98.30;;;;;;4147463;28;20238;-76
2021/12/26 10:04:18;;;;;;;10.40;8.00;;;-0.90;98.30;;;;;;4154398;28;20914;-76
2021/12/26 10:09:02;;;;;;;11.07;7.07;;;-0.50;98.30;;;;;;4139234;28;20227;-77
2021/12/26 10:11:06;;;;;;;10.23;6.68;;;-0.30;97.70;;;;;;4146196;28;20203;-76
2021/12/26 10:13:09;;;;;;;9.77;8.18;;;-0.30;97.00;;;;;;4148829;28;20210;-76
2021/12/26 10:15:12;;;;;;;8.57;7.25;;;0.10;97.40;;;;;;4154254;28;20238;-76
2021/12/26 10:17:23;;;;;;;25.75;19.63;;;0.20;96.40;;;;;;4145473;28;20286;-76
2021/12/26 10:19:26;;;;;;;16.77;13.63;;;0.50;96.10;;;;;;4149828;28;20208;-76
2021/12/26 10:21:35;;;;;;;10.85;8.77;;;0.70;93.70;;;;;;4158574;28;20231;-76
2021/12/26 10:23:38;;;;;;;8.98;6.47;;;0.70;94.10;;;;;;4153626;28;20210;-76
2021/12/26 10:25:41;;;;;;;9.32;6.53;;;0.60;93.40;;;;;;4153359;28;20226;-76
2021/12/26 10:27:46;;;;;;;9.15;5.60;;;0.90;94.00;;;;;;4162265;28;20207;-77
2021/12/26 10:29:51;;;;;;;7.00;5.90;;;1.10;93.00;;;;;;4146639;28;20232;-76
2021/12/26 10:31:58;;;;;;;7.45;6.50;;;1.20;91.80;;;;;;4147862;28;20225;-76
2021/12/26 10:34:02;;;;;;;7.03;6.30;;;1.20;91.30;;;;;;4146823;28;20211;-76
2021/12/26 10:36:06;;;;;;;6.35;5.70;;;1.10;91.60;;;;;;4153804;28;20664;-76
2021/12/26 10:38:19;;;;;;;7.82;5.85;;;1.50;90.30;;;;;;4151972;28;20210;-76
2021/12/26 10:40:25;;;;;;;5.72;5.15;;;2.00;89.40;;;;;;4154226;28;20543;-76
2021/12/26 10:42:32;;;;;;;6.28;5.68;;;1.90;88.90;;;;;;4157293;28;20238;-76